Terminal Aerodrome Forecast
Issued by NWS Wilmington, OH

Current Version | Previous Version | Text Only | Print | Product List | Glossary Off
Versions: 1 2 3 4 5 6 7 8 9 10 11 12 13 14 15 16 17 18 19 20 21 22 23 24 25 26 27 28

000
FTUS41 KILN 231500 AAB
TAFDAY
TAF AMD
KDAY 231554Z 2316/2412 16012KT P6SM OVC060
     FM231900 15012G18KT P6SM VCSH BKN035
     FM232200 13012G20KT 4SM -SHRA BR OVC020
      TEMPO 2323/2401 2SM SHRA OVC015
     FM240300 16014G22KT 5SM -SHRA BR OVC012
     FM240500 18016G24KT P6SM VCSH OVC006
     FM241000 19016G26KT P6SM VCSH BKN012=

USA.gov is the U.S. government's official web portal to all federal, state and local government web resources and services.